aviador You're here:

YAMB Decoded Metar

AMBERLEY in _UNIDENTIFIED
Report Time2017-08-22 08:30:00
UTC Time2017-08-22 09:06:13
Flight Rules vfr VFR
Wind080° at 09 kt
W.Decomp.*RWY 04: 7.9 kt HW 4.4 kt RCW
RWY 15: 1.4 kt HW 8.9 kt LCW
W.Rank080° ranks 2
Current wind is above 080° avg. (7.9)
Visibility9999 m
Phenomena:N/A
Clouds:N/A
Expected CloudBase > 2,400 ft AGL from Temp-Dew spread
CeilingNone
Temp20°C (ISA +5)
Dew Point14°C (69% RH)
AAT18.1°C
QNH1016 hPa
Density Alt810 ft
Elevation92 ft
Report Wrong Elevation
Raw Report
YAMB 220830Z 08009KT CAVOK 20/14 Q1016=

Extra information for YAMB:More info

Metar Taf Metar & Taf Last 4 Metars F.Rules Stats Wind Profile Meteogram Temp Stats Airport Information Weather charts Add Link Nearby VenuesMetar ALERT Operation Metar Decoded Social comments